Time;durP1;ratioP1;P1;durP2;ratioP2;P2;SDS_P1;SDS_P2;PMS_P1;PMS_P2;Temp;Humidity;BMP_temperature;BMP_pressure;BME280_temperature;BME280_humidity;BME280_pressure;Samples;Min_cycle;Max_cycle;Signal;HPM_P1;HPM_P2
2022/04/09 00:01:00;;;;;;;1.40;1.13;;;11.30;99.90;;;;;;4984747;28;20253;-71
2022/04/09 00:03:28;;;;;;;;;;;11.30;99.90;;;;;;4984167;28;20031;-71
2022/04/09 00:05:55;;;;;;;1.20;1.10;;;11.30;99.90;;;;;;4982180;28;19975;-72
2022/04/09 00:08:21;;;;;;;;;;;11.30;99.90;;;;;;4982589;28;20117;-71
2022/04/09 00:10:48;;;;;;;2.15;1.25;;;11.40;99.90;;;;;;4980945;28;19920;-71
2022/04/09 00:13:14;;;;;;;;;;;11.30;99.90;;;;;;4984221;28;20029;-71
2022/04/09 00:15:39;;;;;;;1.40;1.30;;;11.30;99.90;;;;;;4984258;28;19906;-71
2022/04/09 00:18:06;;;;;;;1.00;1.00;;;11.40;99.90;;;;;;4991174;28;20034;-71
2022/04/09 00:20:33;;;;;;;;;;;11.40;99.90;;;;;;4999381;28;20029;-72
2022/04/09 00:22:58;;;;;;;1.10;1.00;;;11.40;99.90;;;;;;5007351;28;19976;-71
2022/04/09 00:25:24;;;;;;;1.73;1.00;;;11.40;99.90;;;;;;5001705;28;20030;-72
2022/04/09 00:27:51;;;;;;;1.23;1.00;;;11.40;99.90;;;;;;4985400;28;20054;-72
2022/04/09 00:30:19;;;;;;;1.20;1.00;;;11.40;99.90;;;;;;4984371;28;20120;-72
2022/04/09 00:32:46;;;;;;;1.48;1.15;;;11.50;99.90;;;;;;4985736;28;20971;-71
2022/04/09 00:35:11;;;;;;;2.67;1.17;;;11.50;99.90;;;;;;4991326;28;20040;-71
2022/04/09 00:37:44;;;;;;;2.07;0.87;;;11.50;99.90;;;;;;4985904;28;20026;-71
2022/04/09 00:40:13;;;;;;;1.52;0.80;;;11.50;99.90;;;;;;4987491;28;20022;-71
2022/04/09 00:42:42;;;;;;;1.23;0.70;;;11.60;99.90;;;;;;4974265;28;20026;-72
2022/04/09 00:45:11;;;;;;;1.02;0.80;;;11.60;99.90;;;;;;4987334;28;20077;-72
2022/04/09 00:47:37;;;;;;;0.65;0.63;;;11.60;99.90;;;;;;4980692;28;20022;-71
2022/04/09 00:50:05;;;;;;;0.40;0.40;;;11.60;99.90;;;;;;4986423;28;20499;-71
2022/04/09 00:52:34;;;;;;;2.10;0.60;;;11.60;99.90;;;;;;4980776;28;20042;-72
2022/04/09 00:55:03;;;;;;;1.00;0.60;;;11.60;99.90;;;;;;4983752;28;20019;-72
2022/04/09 00:57:34;;;;;;;1.05;0.70;;;11.60;99.90;;;;;;4985678;28;20120;-72
2022/04/09 01:00:09;;;;;;;1.52;0.65;;;11.60;99.90;;;;;;5003147;28;20018;-71
2022/04/09 01:02:40;;;;;;;0.77;0.63;;;11.50;99.90;;;;;;4999158;28;20045;-71
2022/04/09 01:05:07;;;;;;;1.95;0.80;;;11.50;99.90;;;;;;4997524;28;20071;-71
2022/04/09 01:07:34;;;;;;;0.95;0.75;;;11.50;99.90;;;;;;4986151;28;20029;-72
2022/04/09 01:10:00;;;;;;;0.73;0.60;;;11.40;99.90;;;;;;4990140;28;20029;-71
2022/04/09 01:12:26;;;;;;;;;;;11.40;99.90;;;;;;4984585;28;20042;-72
2022/04/09 01:14:53;;;;;;;0.82;0.63;;;11.40;99.90;;;;;;4987238;28;19917;-72
2022/04/09 01:17:19;;;;;;;;;;;11.40;99.90;;;;;;4990825;28;20061;-71
2022/04/09 01:19:45;;;;;;;1.90;0.88;;;11.40;99.90;;;;;;4981409;28;19991;-71
2022/04/09 01:22:13;;;;;;;;;;;11.50;99.90;;;;;;5004871;28;20022;-72
2022/04/09 01:24:40;;;;;;;0.50;0.47;;;11.50;99.90;;;;;;4985977;28;19910;-71
2022/04/09 01:27:05;;;;;;;1.33;0.70;;;11.50;99.90;;;;;;4984742;28;20049;-71
2022/04/09 01:29:31;;;;;;;1.27;0.90;;;11.60;99.90;;;;;;4996432;28;20037;-72
2022/04/09 01:31:57;;;;;;;0.93;0.70;;;11.50;99.90;;;;;;4990725;28;20327;-71
2022/04/09 01:34:24;;;;;;;0.57;0.57;;;11.50;99.90;;;;;;4985340;28;20142;-71
2022/04/09 01:36:50;;;;;;;;;;;11.60;99.90;;;;;;4998824;28;20034;-71
2022/04/09 01:39:18;;;;;;;1.58;0.68;;;11.60;99.90;;;;;;4984538;28;19917;-71
2022/04/09 01:41:45;;;;;;;0.65;0.50;;;11.50;99.90;;;;;;4996942;28;20110;-71
2022/04/09 01:44:11;;;;;;;1.77;0.60;;;11.50;99.90;;;;;;4987735;28;20036;-71
2022/04/09 01:46:44;;;;;;;;;;;11.40;99.90;;;;;;4982733;28;20026;-72
2022/04/09 01:49:12;;;;;;;0.77;0.75;;;11.40;99.90;;;;;;4981289;28;19948;-71
2022/04/09 01:51:38;;;;;;;1.55;0.50;;;11.40;99.90;;;;;;4980592;28;20046;-71
2022/04/09 01:54:04;;;;;;;2.80;0.60;;;11.40;99.90;;;;;;5000375;28;20061;-72
2022/04/09 01:56:29;;;;;;;0.60;0.50;;;11.40;99.90;;;;;;4984071;28;20027;-72
2022/04/09 01:58:56;;;;;;;1.47;0.80;;;11.40;99.90;;;;;;5001457;28;20112;-71
2022/04/09 02:01:24;;;;;;;;;;;11.40;99.90;;;;;;4990537;28;20783;-71
2022/04/09 02:03:50;;;;;;;0.70;0.50;;;11.40;99.90;;;;;;4984630;28;20609;-71
2022/04/09 02:06:16;;;;;;;;;;;11.40;99.90;;;;;;4986598;28;20530;-71
2022/04/09 02:08:41;;;;;;;0.52;0.43;;;11.40;99.90;;;;;;4983421;28;19909;-71
2022/04/09 02:11:10;;;;;;;1.07;0.50;;;11.40;99.90;;;;;;4985653;28;20022;-72
2022/04/09 02:13:36;;;;;;;1.02;0.55;;;11.40;99.90;;;;;;4985911;28;20029;-72
2022/04/09 02:16:02;;;;;;;1.40;0.73;;;11.30;99.90;;;;;;4987946;28;20030;-71
2022/04/09 02:18:28;;;;;;;1.13;1.02;;;11.30;99.90;;;;;;4992885;28;20030;-71
2022/04/09 02:20:55;;;;;;;1.00;0.80;;;11.20;99.90;;;;;;4988967;28;20041;-72
2022/04/09 02:23:26;;;;;;;1.00;0.73;;;11.10;99.90;;;;;;4989414;28;20022;-71
2022/04/09 02:25:54;;;;;;;0.55;0.52;;;11.10;99.90;;;;;;5001955;28;20029;-71
2022/04/09 02:28:19;;;;;;;0.45;0.45;;;11.10;99.90;;;;;;4998064;28;20415;-71
2022/04/09 02:30:45;;;;;;;1.40;1.00;;;11.00;99.90;;;;;;4981614;28;20022;-71
2022/04/09 02:33:12;;;;;;;3.63;0.83;;;10.90;99.90;;;;;;4988691;28;20084;-71
2022/04/09 02:35:38;;;;;;;1.80;0.73;;;10.80;99.90;;;;;;4986270;28;20453;-71
2022/04/09 02:38:06;;;;;;;;;;;10.80;99.90;;;;;;5003105;28;20042;-71
2022/04/09 02:40:33;;;;;;;1.15;0.70;;;10.80;99.90;;;;;;4982139;28;20398;-72
2022/04/09 02:42:58;;;;;;;;;;;10.80;99.90;;;;;;4992570;28;20050;-72
2022/04/09 02:45:24;;;;;;;0.70;0.55;;;10.80;99.90;;;;;;4992235;28;19953;-71
2022/04/09 02:47:50;;;;;;;1.20;1.15;;;10.90;99.90;;;;;;4988240;28;20057;-71
2022/04/09 02:50:18;;;;;;;2.43;0.67;;;10.90;99.90;;;;;;4993026;28;20038;-71
2022/04/09 02:52:44;;;;;;;1.63;0.52;;;10.90;99.90;;;;;;4984307;28;20057;-71
2022/04/09 02:55:09;;;;;;;2.17;0.60;;;10.90;99.90;;;;;;4994365;28;20153;-71
2022/04/09 02:57:37;;;;;;;1.20;0.80;;;10.90;99.90;;;;;;4999678;28;20491;-71
2022/04/09 03:00:05;;;;;;;0.75;0.70;;;10.90;99.90;;;;;;4989894;28;20025;-71
2022/04/09 03:02:31;;;;;;;1.38;0.65;;;10.90;99.90;;;;;;4985096;28;20018;-72
2022/04/09 03:04:57;;;;;;;0.63;0.60;;;10.90;99.90;;;;;;4990433;28;20037;-71
2022/04/09 03:07:24;;;;;;;0.70;0.70;;;10.90;99.90;;;;;;4988026;28;20030;-71
2022/04/09 03:09:49;;;;;;;;;;;10.80;99.90;;;;;;4983322;28;20088;-71
2022/04/09 03:12:16;;;;;;;1.98;0.60;;;10.90;99.90;;;;;;4984742;28;19910;-71
2022/04/09 03:14:46;;;;;;;;;;;10.90;99.90;;;;;;4987623;28;20029;-71
2022/04/09 03:17:12;;;;;;;0.57;0.57;;;10.80;99.90;;;;;;4987310;28;19948;-72
2022/04/09 03:19:38;;;;;;;;;;;10.80;99.90;;;;;;4981228;28;20061;-72
2022/04/09 03:22:04;;;;;;;1.15;0.95;;;10.70;99.90;;;;;;5006244;28;20509;-71
2022/04/09 03:24:29;;;;;;;0.70;0.70;;;10.70;99.90;;;;;;4988824;28;20089;-72
2022/04/09 03:26:56;;;;;;;1.33;0.70;;;10.70;99.90;;;;;;4990856;28;20345;-71
2022/04/09 03:29:21;;;;;;;3.42;1.35;;;10.60;99.90;;;;;;4987668;28;20476;-71
2022/04/09 03:31:47;;;;;;;1.07;0.77;;;10.60;99.90;;;;;;4984242;28;20042;-71
2022/04/09 03:34:14;;;;;;;1.80;0.80;;;10.60;99.90;;;;;;4990173;28;20536;-71
2022/04/09 03:36:42;;;;;;;0.77;0.65;;;10.50;99.90;;;;;;4981767;28;20109;-72
2022/04/09 03:39:10;;;;;;;2.45;0.95;;;10.50;99.90;;;;;;4986522;28;20022;-72
2022/04/09 03:41:35;;;;;;;1.50;0.88;;;10.50;99.90;;;;;;4988796;28;20116;-71
2022/04/09 03:44:03;;;;;;;1.47;1.00;;;10.50;99.90;;;;;;4990962;28;20572;-71
2022/04/09 03:46:29;;;;;;;1.27;1.20;;;10.50;99.90;;;;;;4985605;28;20025;-71
2022/04/09 03:48:54;;;;;;;2.10;0.77;;;10.60;99.90;;;;;;4990909;28;20772;-71
2022/04/09 03:51:22;;;;;;;0.93;0.70;;;10.60;99.90;;;;;;4987103;28;20022;-71
2022/04/09 03:53:50;;;;;;;1.58;1.20;;;10.60;99.90;;;;;;4989259;28;20655;-71
2022/04/09 03:56:16;;;;;;;2.78;1.05;;;10.60;99.90;;;;;;4991596;28;20030;-71
2022/04/09 03:58:43;;;;;;;1.80;0.98;;;10.70;99.90;;;;;;5002246;28;20464;-71
2022/04/09 04:01:09;;;;;;;2.00;1.10;;;10.70;99.90;;;;;;4990370;28;20169;-71
2022/04/09 04:03:35;;;;;;;1.23;1.00;;;10.80;99.90;;;;;;5001045;28;20102;-71
2022/04/09 04:06:01;;;;;;;1.00;0.80;;;10.90;99.90;;;;;;5000445;28;21056;-71
2022/04/09 04:08:27;;;;;;;1.77;1.10;;;10.90;99.90;;;;;;4986925;28;20584;-71
2022/04/09 04:10:53;;;;;;;2.97;0.82;;;10.90;99.90;;;;;;4988891;28;20061;-71
2022/04/09 04:13:19;;;;;;;0.73;0.70;;;10.90;99.90;;;;;;4983744;28;20589;-71
2022/04/09 04:15:44;;;;;;;1.47;0.53;;;10.90;99.90;;;;;;4986507;28;20072;-72
2022/04/09 04:18:11;;;;;;;1.40;0.77;;;10.90;99.90;;;;;;4990130;28;20026;-71
2022/04/09 04:20:37;;;;;;;;;;;10.90;99.90;;;;;;4987607;28;20494;-72
2022/04/09 04:23:03;;;;;;;1.48;0.60;;;10.80;99.90;;;;;;4986377;28;19905;-71
2022/04/09 04:25:29;;;;;;;;;;;10.80;99.90;;;;;;4992652;28;20057;-71
2022/04/09 04:27:55;;;;;;;1.42;0.68;;;10.80;99.90;;;;;;4984506;28;19913;-71
2022/04/09 04:30:22;;;;;;;1.13;0.73;;;10.80;99.90;;;;;;4985265;28;20049;-71
2022/04/09 04:32:47;;;;;;;0.50;0.50;;;10.80;99.90;;;;;;4986330;28;20030;-71
2022/04/09 04:35:13;;;;;;;0.70;0.57;;;10.80;99.90;;;;;;4986908;28;20041;-71
2022/04/09 04:37:41;;;;;;;1.63;1.20;;;10.80;99.90;;;;;;4982129;28;20026;-72
2022/04/09 04:40:08;;;;;;;0.52;0.40;;;10.80;99.90;;;;;;4987255;28;20029;-71
2022/04/09 04:42:34;;;;;;;0.75;0.63;;;10.80;99.90;;;;;;4985055;28;20073;-71
2022/04/09 04:45:00;;;;;;;0.95;0.70;;;10.90;99.90;;;;;;4992235;28;20659;-72
2022/04/09 04:47:27;;;;;;;0.80;0.73;;;10.90;99.90;;;;;;4987123;28;20034;-71
2022/04/09 04:49:53;;;;;;;;;;;11.00;99.90;;;;;;4983091;28;20460;-71
2022/04/09 04:52:19;;;;;;;2.65;0.60;;;11.00;99.90;;;;;;4989594;28;19964;-71
2022/04/09 04:54:45;;;;;;;0.47;0.40;;;11.00;99.90;;;;;;4981838;28;20034;-71
2022/04/09 04:57:11;;;;;;;0.50;0.50;;;11.00;99.90;;;;;;4987325;28;20563;-71
2022/04/09 04:59:38;;;;;;;;;;;11.00;99.90;;;;;;4982500;28;20084;-72
2022/04/09 05:02:04;;;;;;;0.65;0.47;;;11.10;99.90;;;;;;4989045;28;19941;-71
2022/04/09 05:04:29;;;;;;;0.60;0.60;;;11.10;99.90;;;;;;4987277;28;20065;-71
2022/04/09 05:06:57;;;;;;;1.43;0.40;;;11.10;99.90;;;;;;4984211;28;20037;-71
2022/04/09 05:09:23;;;;;;;0.70;0.55;;;11.30;99.90;;;;;;4984509;28;20095;-71
2022/04/09 05:11:51;;;;;;;0.95;0.40;;;11.20;99.90;;;;;;4989327;28;20030;-70
2022/04/09 05:14:17;;;;;;;1.63;0.70;;;11.20;99.90;;;;;;4983527;28;21427;-71
2022/04/09 05:16:44;;;;;;;1.35;0.60;;;11.20;99.90;;;;;;4985296;28;20591;-71
2022/04/09 05:19:10;;;;;;;0.45;0.40;;;11.20;99.90;;;;;;4984985;28;20045;-72
2022/04/09 05:21:35;;;;;;;1.10;0.60;;;11.30;99.90;;;;;;4988072;28;20023;-71
2022/04/09 05:24:03;;;;;;;0.50;0.37;;;11.30;99.90;;;;;;5006000;28;20631;-71
2022/04/09 05:26:29;;;;;;;1.05;0.47;;;11.40;99.90;;;;;;4987506;28;20117;-71
2022/04/09 05:28:55;;;;;;;0.57;0.40;;;11.40;99.90;;;;;;4986290;28;20113;-72
2022/04/09 05:31:27;;;;;;;0.63;0.43;;;11.40;99.90;;;;;;4984106;28;20049;-71
2022/04/09 05:33:54;;;;;;;1.65;0.50;;;11.50;99.90;;;;;;4987207;28;20105;-71
2022/04/09 05:36:20;;;;;;;0.30;0.30;;;11.50;99.90;;;;;;4985617;28;20475;-71
2022/04/09 05:38:47;;;;;;;0.57;0.50;;;11.50;99.90;;;;;;4990218;28;20033;-71
2022/04/09 05:41:14;;;;;;;0.57;0.55;;;11.60;99.90;;;;;;4998604;28;20361;-72
2022/04/09 05:43:39;;;;;;;;;;;11.60;99.90;;;;;;4990016;28;20022;-71
2022/04/09 05:46:06;;;;;;;1.63;0.40;;;11.60;99.90;;;;;;4986575;28;20240;-72
2022/04/09 05:48:31;;;;;;;0.65;0.40;;;11.60;99.90;;;;;;4990500;28;20033;-72
2022/04/09 05:51:03;;;;;;;0.80;0.40;;;11.60;99.90;;;;;;4988249;28;20034;-71
2022/04/09 05:53:29;;;;;;;0.85;0.50;;;11.40;99.90;;;;;;4983966;28;20111;-71
2022/04/09 05:55:55;;;;;;;0.40;0.40;;;11.30;99.90;;;;;;4983178;28;20038;-72
2022/04/09 05:58:23;;;;;;;0.50;0.30;;;11.00;99.90;;;;;;4985435;28;20038;-71
2022/04/09 06:00:48;;;;;;;0.52;0.45;;;10.70;99.90;;;;;;4987542;28;20029;-73
2022/04/09 06:03:16;;;;;;;0.87;0.53;;;10.40;99.90;;;;;;5000635;28;20018;-72
2022/04/09 06:05:41;;;;;;;0.50;0.50;;;10.10;99.90;;;;;;4984312;28;20027;-71
2022/04/09 06:08:07;;;;;;;0.60;0.43;;;9.90;99.90;;;;;;4984955;28;20030;-72
2022/04/09 06:10:33;;;;;;;0.40;0.40;;;9.60;99.90;;;;;;4989440;28;20113;-72
2022/04/09 06:12:59;;;;;;;0.20;0.20;;;9.30;99.90;;;;;;4994093;28;20065;-71
2022/04/09 06:15:26;;;;;;;0.85;0.30;;;9.00;99.90;;;;;;4987397;28;20030;-75
2022/04/09 06:17:52;;;;;;;0.20;0.20;;;8.80;99.90;;;;;;5003622;28;20562;-72
2022/04/09 06:20:18;;;;;;;0.30;0.30;;;8.70;99.90;;;;;;4992457;28;20038;-73
2022/04/09 06:22:45;;;;;;;0.83;0.47;;;8.50;99.90;;;;;;4984486;28;20045;-72
2022/04/09 06:25:12;;;;;;;0.73;0.20;;;8.40;99.90;;;;;;4991893;28;20033;-73
2022/04/09 06:27:41;;;;;;;1.17;0.17;;;8.40;99.90;;;;;;4987485;28;20027;-72
2022/04/09 06:30:08;;;;;;;0.43;0.43;;;8.30;99.90;;;;;;5002796;28;20070;-71
2022/04/09 06:32:34;;;;;;;;;;;8.20;99.90;;;;;;4990076;28;20022;-73
2022/04/09 06:35:00;;;;;;;0.68;0.68;;;8.00;99.90;;;;;;4990712;28;19906;-74
2022/04/09 06:37:26;;;;;;;0.83;0.70;;;7.90;99.90;;;;;;4985985;28;20140;-72
2022/04/09 06:39:53;;;;;;;0.77;0.77;;;7.80;99.90;;;;;;5005639;28;20408;-72
2022/04/09 06:42:21;;;;;;;0.82;0.82;;;7.60;99.90;;;;;;4990278;28;20136;-72
2022/04/09 06:44:47;;;;;;;0.90;0.90;;;7.50;99.90;;;;;;4990299;28;20505;-71
2022/04/09 06:47:12;;;;;;;1.43;1.10;;;7.40;99.90;;;;;;4989596;28;20034;-71
2022/04/09 06:49:38;;;;;;;7.60;1.60;;;7.30;99.90;;;;;;5000032;28;20022;-72
2022/04/09 06:52:05;;;;;;;1.52;1.42;;;7.40;99.90;;;;;;4990659;28;20017;-72
2022/04/09 06:54:32;;;;;;;1.98;1.70;;;7.20;99.90;;;;;;4985790;28;20101;-73
2022/04/09 06:56:59;;;;;;;1.80;1.70;;;7.20;99.90;;;;;;4992848;28;20026;-71
2022/04/09 06:59:26;;;;;;;2.20;2.00;;;7.20;99.90;;;;;;4986352;28;20046;-71
2022/04/09 07:01:52;;;;;;;3.05;2.53;;;7.20;99.90;;;;;;4993840;28;20976;-73
2022/04/09 07:04:18;;;;;;;3.27;2.60;;;7.10;99.90;;;;;;4992154;28;20030;-71
2022/04/09 07:06:46;;;;;;;3.33;2.80;;;7.20;99.90;;;;;;4988344;28;20038;-72
2022/04/09 07:09:13;;;;;;;3.40;3.08;;;7.10;99.90;;;;;;4992922;28;20017;-72
2022/04/09 07:11:39;;;;;;;3.10;2.80;;;7.20;99.90;;;;;;4985578;28;20018;-70
2022/04/09 07:14:06;;;;;;;3.75;3.00;;;7.20;99.90;;;;;;4989923;28;20634;-71
2022/04/09 07:16:32;;;;;;;3.50;2.80;;;7.20;99.90;;;;;;4981915;28;20030;-71
2022/04/09 07:18:57;;;;;;;3.60;2.87;;;7.20;99.90;;;;;;5009072;28;20034;-74
2022/04/09 07:21:23;;;;;;;2.97;2.40;;;7.20;99.90;;;;;;4984858;28;20611;-71
2022/04/09 07:23:50;;;;;;;3.63;2.70;;;7.30;99.90;;;;;;4989777;28;20026;-76
2022/04/09 07:26:16;;;;;;;2.92;2.33;;;7.30;99.90;;;;;;4988338;28;20033;-71
2022/04/09 07:28:42;;;;;;;4.05;2.88;;;7.30;99.90;;;;;;4988271;28;20022;-73
2022/04/09 07:31:07;;;;;;;2.50;2.07;;;7.20;99.90;;;;;;4988341;28;20081;-73
2022/04/09 07:33:33;;;;;;;2.47;2.27;;;7.20;99.90;;;;;;4988799;28;20417;-71
2022/04/09 07:36:03;;;;;;;3.90;2.20;;;7.30;99.90;;;;;;4986507;28;20535;-73
2022/04/09 07:38:30;;;;;;;2.88;2.00;;;7.30;99.90;;;;;;4985449;28;20026;-74
2022/04/09 07:40:59;;;;;;;3.33;1.80;;;7.40;99.90;;;;;;4988433;28;20026;-71
2022/04/09 07:43:24;;;;;;;1.70;1.60;;;7.60;99.90;;;;;;4989489;28;20037;-71
2022/04/09 07:45:51;;;;;;;1.53;1.40;;;7.70;99.40;;;;;;4990364;28;20439;-72
2022/04/09 07:48:18;;;;;;;1.50;1.40;;;7.80;99.30;;;;;;4987845;28;20025;-71
2022/04/09 07:50:44;;;;;;;1.42;1.30;;;7.70;99.40;;;;;;4981844;28;20034;-72
2022/04/09 07:53:11;;;;;;;1.60;1.30;;;7.70;98.60;;;;;;4992726;28;20042;-72
2022/04/09 07:55:37;;;;;;;1.08;0.98;;;7.70;98.80;;;;;;4981122;28;20121;-71
2022/04/09 07:58:07;;;;;;;1.25;1.15;;;7.80;98.70;;;;;;4987595;28;20221;-73
2022/04/09 08:00:33;;;;;;;1.70;1.20;;;7.80;98.30;;;;;;4985091;28;20029;-72
2022/04/09 08:03:00;;;;;;;2.00;1.30;;;7.80;98.10;;;;;;4988735;28;20053;-72
2022/04/09 08:05:27;;;;;;;;;;;7.80;97.60;;;;;;4982811;28;20108;-72
2022/04/09 08:07:57;;;;;;;1.15;1.00;;;7.80;97.50;;;;;;4986592;28;19916;-73
2022/04/09 08:10:22;;;;;;;1.60;1.40;;;7.90;97.30;;;;;;4986453;28;20022;-72
2022/04/09 08:12:51;;;;;;;1.30;1.10;;;8.00;96.80;;;;;;4988630;28;20030;-72
2022/04/09 08:15:18;;;;;;;2.25;1.00;;;8.00;96.60;;;;;;4989331;28;20030;-74
2022/04/09 08:17:45;;;;;;;1.48;1.20;;;8.10;96.00;;;;;;4995770;28;20541;-72
2022/04/09 08:20:15;;;;;;;1.58;1.48;;;8.10;96.10;;;;;;4983211;28;20030;-72
2022/04/09 08:22:41;;;;;;;3.47;1.13;;;8.00;95.70;;;;;;4984026;28;20026;-72
2022/04/09 08:25:07;;;;;;;1.85;1.75;;;7.90;96.00;;;;;;4987287;28;20399;-71
2022/04/09 08:27:35;;;;;;;1.48;1.38;;;8.00;96.10;;;;;;4984018;28;20024;-72
2022/04/09 08:30:02;;;;;;;2.58;2.00;;;8.00;95.90;;;;;;4987911;28;20380;-72
2022/04/09 08:32:29;;;;;;;3.63;2.15;;;8.00;95.60;;;;;;4993604;28;20018;-72
2022/04/09 08:34:55;;;;;;;2.75;2.55;;;8.10;95.60;;;;;;4990875;28;20037;-73
2022/04/09 08:37:22;;;;;;;4.60;2.40;;;8.00;95.20;;;;;;4988445;28;20077;-77
2022/04/09 08:39:49;;;;;;;2.70;2.35;;;8.00;95.50;;;;;;4985079;28;20695;-72
2022/04/09 08:42:15;;;;;;;4.55;3.10;;;8.10;95.30;;;;;;5004217;28;20092;-72
2022/04/09 08:44:41;;;;;;;4.35;2.83;;;8.10;95.20;;;;;;4988014;28;20069;-72
2022/04/09 08:47:12;;;;;;;4.00;3.37;;;8.20;95.40;;;;;;4999301;28;20643;-72
2022/04/09 08:49:40;;;;;;;3.60;3.00;;;8.30;94.70;;;;;;4994204;28;20024;-72
2022/04/09 08:52:08;;;;;;;3.40;3.10;;;8.30;94.90;;;;;;4986609;28;20525;-73
2022/04/09 08:54:36;;;;;;;4.95;3.80;;;8.30;94.80;;;;;;4986552;28;20022;-72
2022/04/09 08:57:02;;;;;;;6.72;3.80;;;8.30;94.40;;;;;;4986648;28;20411;-73
2022/04/09 08:59:28;;;;;;;4.32;3.53;;;8.40;94.70;;;;;;4986799;28;20029;-71
2022/04/09 09:01:54;;;;;;;5.30;3.80;;;8.50;94.40;;;;;;4988775;28;20375;-73
2022/04/09 09:04:20;;;;;;;5.23;3.67;;;8.70;94.10;;;;;;4988034;28;20566;-73
2022/04/09 09:06:46;;;;;;;3.87;3.13;;;8.90;93.90;;;;;;4986464;28;20633;-73
2022/04/09 09:09:32;;;;;;;6.70;3.70;;;8.90;93.50;;;;;;4989755;28;20022;-72
2022/04/09 09:12:00;;;;;;;4.25;3.85;;;8.90;93.30;;;;;;4999863;28;20029;-73
2022/04/09 09:14:28;;;;;;;5.95;4.38;;;8.80;93.60;;;;;;4997318;28;20037;-72
2022/04/09 09:16:58;;;;;;;5.63;3.78;;;8.90;93.60;;;;;;4987350;28;20104;-72
2022/04/09 09:19:48;;;;;;;4.88;3.90;;;8.80;93.70;;;;;;4987361;28;21359;-71
2022/04/09 09:22:16;;;;;;;6.95;4.10;;;8.70;93.50;;;;;;4987027;28;21039;-72
2022/04/09 09:24:41;;;;;;;5.22;3.90;;;8.60;93.80;;;;;;4983181;28;20054;-71
2022/04/09 09:27:07;;;;;;;5.33;4.17;;;8.50;94.70;;;;;;4985842;28;20109;-73
2022/04/09 09:29:35;;;;;;;5.68;4.13;;;8.50;94.20;;;;;;4983068;28;20661;-72
2022/04/09 09:32:03;;;;;;;5.28;3.78;;;8.50;95.60;;;;;;4978572;28;20019;-73
2022/04/09 09:34:30;;;;;;;4.80;3.90;;;8.40;94.20;;;;;;4986271;28;20018;-74
2022/04/09 09:36:56;;;;;;;5.97;3.88;;;8.40;94.40;;;;;;5002493;28;20034;-71
2022/04/09 09:39:23;;;;;;;3.95;3.20;;;8.40;94.50;;;;;;4981793;28;20022;-72
2022/04/09 09:41:57;;;;;;;4.22;3.17;;;8.30;94.80;;;;;;4986910;28;20506;-71
2022/04/09 09:44:26;;;;;;;5.68;3.30;;;8.30;94.80;;;;;;4989017;28;20026;-72
2022/04/09 09:46:54;;;;;;;4.28;3.60;;;8.20;94.50;;;;;;4987858;28;20025;-73
2022/04/09 09:49:24;;;;;;;5.07;3.72;;;8.10;94.80;;;;;;4985428;28;20109;-71
2022/04/09 09:52:08;;;;;;;6.03;3.28;;;8.00;95.10;;;;;;4983191;28;20061;-72
2022/04/09 09:55:10;;;;;;;4.07;2.95;;;8.10;95.10;;;;;;4990180;28;20018;-72
2022/04/09 09:57:41;;;;;;;9.40;3.30;;;8.20;95.10;;;;;;5000574;28;20022;-71
2022/04/09 10:00:12;;;;;;;5.95;3.30;;;8.40;94.70;;;;;;4980669;28;20057;-75
2022/04/09 10:02:39;;;;;;;3.90;3.05;;;8.40;94.60;;;;;;4987683;28;20109;-71
2022/04/09 10:05:05;;;;;;;4.50;3.33;;;8.40;94.70;;;;;;4985598;28;20476;-71
2022/04/09 10:07:33;;;;;;;3.72;3.10;;;8.40;94.70;;;;;;4983579;28;20045;-71
2022/04/09 10:10:01;;;;;;;4.50;3.55;;;8.50;94.90;;;;;;4991192;28;20026;-70
2022/04/09 10:12:27;;;;;;;4.13;3.10;;;8.40;94.50;;;;;;4982239;28;20030;-71
2022/04/09 10:14:57;;;;;;;3.70;3.33;;;8.40;94.30;;;;;;4984177;28;20431;-72
2022/04/09 10:17:26;;;;;;;4.70;3.50;;;8.40;94.30;;;;;;4985687;28;20033;-72
2022/04/09 10:19:56;;;;;;;4.90;3.75;;;8.40;94.70;;;;;;4986147;28;20034;-74
2022/04/09 10:22:24;;;;;;;4.90;3.28;;;8.40;94.50;;;;;;5004475;28;20500;-71
2022/04/09 10:24:51;;;;;;;4.13;3.35;;;8.50;94.80;;;;;;4984399;28;20076;-75
2022/04/09 10:27:37;;;;;;;4.30;3.13;;;8.60;94.30;;;;;;4985803;28;20112;-71
2022/04/09 10:30:28;;;;;;;5.10;3.60;;;8.50;94.50;;;;;;4986729;28;20577;-71
2022/04/09 10:32:59;;;;;;;5.82;4.28;;;8.50;94.50;;;;;;4984319;28;20046;-72
2022/04/09 10:35:38;;;;;;;4.93;3.72;;;8.50;94.00;;;;;;4988973;28;20026;-73
2022/04/09 10:38:12;;;;;;;6.50;4.53;;;8.40;94.40;;;;;;4980589;28;20034;-72
2022/04/09 10:41:02;;;;;;;5.22;3.70;;;8.50;94.40;;;;;;4994451;28;20066;-71
2022/04/09 10:43:37;;;;;;;5.88;3.85;;;8.50;94.60;;;;;;4982268;28;20476;-71
2022/04/09 10:46:03;;;;;;;6.05;3.63;;;8.60;94.60;;;;;;4985759;28;20037;-70
2022/04/09 10:48:33;;;;;;;5.95;3.67;;;8.90;95.30;;;;;;4977872;28;20033;-70
2022/04/09 10:51:02;;;;;;;6.18;3.55;;;9.20;94.90;;;;;;4989185;28;20084;-71
2022/04/09 10:53:30;;;;;;;5.93;3.80;;;9.50;93.90;;;;;;4982788;28;20050;-71
2022/04/09 10:56:25;;;;;;;6.20;3.80;;;9.70;92.00;;;;;;4991272;28;20026;-71
2022/04/09 10:59:09;;;;;;;4.30;3.38;;;9.70;91.80;;;;;;4985194;28;20112;-71
2022/04/09 11:01:50;;;;;;;6.45;3.60;;;9.70;91.50;;;;;;4981735;28;20015;-71
2022/04/09 11:04:37;;;;;;;4.45;3.42;;;9.50;91.50;;;;;;5006910;28;20022;-71
2022/04/09 11:07:08;;;;;;;7.47;3.30;;;9.40;91.70;;;;;;4990826;28;20101;-71
2022/04/09 11:09:56;;;;;;;5.55;3.78;;;9.40;91.50;;;;;;4982845;28;20552;-71
2022/04/09 11:12:37;;;;;;;4.72;3.22;;;9.30;91.30;;;;;;4984944;28;20484;-71
2022/04/09 11:15:04;;;;;;;4.45;3.40;;;9.20;90.80;;;;;;4992489;28;20727;-71
2022/04/09 11:17:35;;;;;;;;;;;9.10;90.60;;;;;;4982269;28;20030;-71
2022/04/09 11:20:06;;;;;;;4.75;3.15;;;9.10;90.80;;;;;;4992737;28;19916;-71
2022/04/09 11:22:37;;;;;;;4.90;3.42;;;9.20;90.90;;;;;;4984602;28;20021;-71
2022/04/09 11:25:06;;;;;;;3.85;2.80;;;9.10;90.50;;;;;;4989996;28;20030;-71
2022/04/09 11:27:32;;;;;;;6.88;2.95;;;9.20;90.40;;;;;;4986175;28;20029;-71
2022/04/09 11:29:58;;;;;;;3.95;2.88;;;9.20;89.60;;;;;;4985934;28;20029;-71
2022/04/09 11:32:26;;;;;;;4.90;3.00;;;9.20;89.30;;;;;;4987481;28;20068;-71
2022/04/09 11:34:57;;;;;;;5.03;2.70;;;9.20;88.70;;;;;;4983578;28;20069;-72
2022/04/09 11:37:34;;;;;;;3.15;2.63;;;9.20;88.40;;;;;;4989476;28;20101;-71
2022/04/09 11:40:06;;;;;;;4.80;2.80;;;9.10;88.90;;;;;;4990457;28;20026;-73
2022/04/09 11:42:55;;;;;;;4.22;2.92;;;9.00;89.00;;;;;;4986316;28;20021;-71
2022/04/09 11:45:23;;;;;;;3.88;2.85;;;8.90;89.20;;;;;;4991472;28;20022;-71
2022/04/09 11:47:54;;;;;;;3.83;2.90;;;8.90;89.70;;;;;;4984018;28;20088;-72
2022/04/09 11:50:20;;;;;;;3.95;2.78;;;8.80;89.20;;;;;;4992492;28;20950;-71
2022/04/09 11:52:46;;;;;;;6.38;2.83;;;8.90;89.20;;;;;;4988720;28;20137;-73
2022/04/09 11:55:16;;;;;;;4.43;2.90;;;8.90;87.80;;;;;;4988303;28;20014;-72
2022/04/09 11:57:53;;;;;;;5.13;2.63;;;9.00;87.80;;;;;;4985007;28;20026;-71
2022/04/09 12:00:23;;;;;;;5.28;2.63;;;8.90;88.10;;;;;;4989608;28;20022;-71
2022/04/09 12:02:49;;;;;;;4.80;2.60;;;9.00;87.90;;;;;;4984173;28;20716;-71
2022/04/09 12:05:15;;;;;;;5.05;2.50;;;9.10;88.10;;;;;;4991639;28;20049;-71
2022/04/09 12:07:47;;;;;;;4.38;2.78;;;9.00;87.00;;;;;;4983018;28;20030;-72
2022/04/09 12:10:28;;;;;;;3.92;2.47;;;9.00;87.10;;;;;;4989813;28;20014;-71
2022/04/09 12:12:58;;;;;;;3.53;2.25;;;9.00;86.70;;;;;;4987671;28;20022;-71
2022/04/09 12:15:32;;;;;;;2.55;2.33;;;9.00;86.90;;;;;;5003083;28;20022;-73
2022/04/09 12:18:00;;;;;;;3.17;2.28;;;9.10;85.50;;;;;;4983428;28;20041;-71
2022/04/09 12:20:33;;;;;;;3.67;2.67;;;9.10;86.10;;;;;;4989815;28;20487;-71
2022/04/09 12:23:00;;;;;;;3.65;2.38;;;9.30;86.10;;;;;;4990196;28;20508;-71
2022/04/09 12:25:52;;;;;;;3.10;2.22;;;9.50;85.20;;;;;;4986607;28;20095;-71
2022/04/09 12:28:22;;;;;;;4.65;2.20;;;9.60;84.30;;;;;;4979651;28;20362;-70
2022/04/09 12:30:49;;;;;;;3.58;2.35;;;9.80;83.50;;;;;;4985619;28;20018;-71
2022/04/09 12:33:15;;;;;;;5.20;2.42;;;10.00;83.50;;;;;;4990401;28;20022;-71
2022/04/09 12:35:41;;;;;;;3.42;2.20;;;10.20;83.40;;;;;;4982176;28;20019;-71
2022/04/09 12:38:07;;;;;;;4.93;2.45;;;10.30;82.80;;;;;;4986223;28;20672;-71
2022/04/09 12:40:33;;;;;;;2.77;2.50;;;10.40;82.10;;;;;;4987184;28;20140;-71
2022/04/09 12:43:01;;;;;;;3.13;2.33;;;10.40;81.80;;;;;;4989836;28;20022;-71
2022/04/09 12:45:28;;;;;;;4.43;2.30;;;10.30;81.50;;;;;;4986466;28;20041;-71
2022/04/09 12:47:59;;;;;;;3.75;2.63;;;10.30;82.20;;;;;;4983250;28;20021;-71
2022/04/09 12:50:35;;;;;;;3.38;2.10;;;10.30;81.90;;;;;;4986628;28;20070;-71
2022/04/09 12:53:05;;;;;;;3.92;2.60;;;10.30;82.90;;;;;;4990395;28;20057;-71
2022/04/09 12:55:32;;;;;;;2.85;2.25;;;10.30;83.90;;;;;;4987878;28;20023;-71
2022/04/09 12:57:59;;;;;;;3.03;2.28;;;10.30;84.10;;;;;;4985331;28;20048;-70
2022/04/09 13:00:31;;;;;;;3.13;2.13;;;10.40;84.10;;;;;;4987350;28;20112;-71
2022/04/09 13:03:00;;;;;;;2.58;2.30;;;10.40;83.60;;;;;;4983394;28;20030;-71